sensor_id;sensor_type;location;lat;lon;timestamp;P1;durP1;ratioP1;P2;durP2;ratioP2
34643;SDS011;26931;43.498;-1.506;2023-04-15T00:01:27;69.22;;;14.77;;
34643;SDS011;26931;43.498;-1.506;2023-04-15T00:03:54;89.43;;;16.83;;
34643;SDS011;26931;43.498;-1.506;2023-04-15T00:06:21;75.75;;;15.45;;
34643;SDS011;26931;43.498;-1.506;2023-04-15T00:08:47;70.75;;;16.92;;
34643;SDS011;26931;43.498;-1.506;2023-04-15T00:11:15;88.97;;;18.40;;
34643;SDS011;26931;43.498;-1.506;2023-04-15T00:13:41;76.50;;;17.30;;
34643;SDS011;26931;43.498;-1.506;2023-04-15T00:16:08;68.03;;;15.68;;
34643;SDS011;26931;43.498;-1.506;2023-04-15T00:18:35;81.68;;;16.58;;
34643;SDS011;26931;43.498;-1.506;2023-04-15T00:21:01;66.35;;;16.00;;
34643;SDS011;26931;43.498;-1.506;2023-04-15T00:23:28;71.60;;;13.73;;
34643;SDS011;26931;43.498;-1.506;2023-04-15T00:25:54;59.22;;;14.23;;
34643;SDS011;26931;43.498;-1.506;2023-04-15T00:28:21;68.78;;;14.15;;
34643;SDS011;26931;43.498;-1.506;2023-04-15T00:30:47;69.72;;;14.23;;
34643;SDS011;26931;43.498;-1.506;2023-04-15T00:33:13;63.75;;;13.60;;
34643;SDS011;26931;43.498;-1.506;2023-04-15T00:35:40;73.80;;;14.05;;
34643;SDS011;26931;43.498;-1.506;2023-04-15T00:38:06;68.25;;;13.90;;
34643;SDS011;26931;43.498;-1.506;2023-04-15T00:40:32;69.60;;;14.02;;
34643;SDS011;26931;43.498;-1.506;2023-04-15T00:42:59;66.72;;;14.75;;
34643;SDS011;26931;43.498;-1.506;2023-04-15T00:45:25;63.50;;;13.50;;
34643;SDS011;26931;43.498;-1.506;2023-04-15T00:47:52;57.78;;;12.85;;
34643;SDS011;26931;43.498;-1.506;2023-04-15T00:50:20;77.32;;;14.48;;
34643;SDS011;26931;43.498;-1.506;2023-04-15T00:52:46;76.82;;;16.15;;
34643;SDS011;26931;43.498;-1.506;2023-04-15T00:55:12;79.03;;;14.05;;
34643;SDS011;26931;43.498;-1.506;2023-04-15T00:57:38;73.03;;;14.48;;
34643;SDS011;26931;43.498;-1.506;2023-04-15T01:00:04;73.07;;;15.52;;
34643;SDS011;26931;43.498;-1.506;2023-04-15T01:02:34;62.17;;;14.63;;
34643;SDS011;26931;43.498;-1.506;2023-04-15T01:05:01;65.63;;;13.38;;
34643;SDS011;26931;43.498;-1.506;2023-04-15T01:07:28;61.20;;;13.90;;
34643;SDS011;26931;43.498;-1.506;2023-04-15T01:09:55;65.13;;;13.30;;
34643;SDS011;26931;43.498;-1.506;2023-04-15T01:12:21;65.95;;;14.65;;
34643;SDS011;26931;43.498;-1.506;2023-04-15T01:14:48;73.68;;;15.35;;
34643;SDS011;26931;43.498;-1.506;2023-04-15T01:17:15;74.07;;;15.23;;
34643;SDS011;26931;43.498;-1.506;2023-04-15T01:19:42;67.55;;;14.77;;
34643;SDS011;26931;43.498;-1.506;2023-04-15T01:22:08;77.57;;;15.70;;
34643;SDS011;26931;43.498;-1.506;2023-04-15T01:24:34;85.85;;;15.52;;
34643;SDS011;26931;43.498;-1.506;2023-04-15T01:27:01;70.72;;;15.00;;
34643;SDS011;26931;43.498;-1.506;2023-04-15T01:29:30;82.28;;;16.05;;
34643;SDS011;26931;43.498;-1.506;2023-04-15T01:31:57;71.53;;;14.57;;
34643;SDS011;26931;43.498;-1.506;2023-04-15T01:34:23;71.25;;;14.48;;
34643;SDS011;26931;43.498;-1.506;2023-04-15T01:36:49;65.05;;;13.57;;
34643;SDS011;26931;43.498;-1.506;2023-04-15T01:39:15;67.90;;;12.05;;
34643;SDS011;26931;43.498;-1.506;2023-04-15T01:41:41;44.72;;;9.15;;
34643;SDS011;26931;43.498;-1.506;2023-04-15T01:44:08;33.45;;;7.50;;
34643;SDS011;26931;43.498;-1.506;2023-04-15T01:46:34;28.52;;;7.18;;
34643;SDS011;26931;43.498;-1.506;2023-04-15T01:49:00;36.10;;;8.13;;
34643;SDS011;26931;43.498;-1.506;2023-04-15T01:51:26;37.08;;;8.25;;
34643;SDS011;26931;43.498;-1.506;2023-04-15T01:53:52;33.47;;;7.50;;
34643;SDS011;26931;43.498;-1.506;2023-04-15T01:56:21;34.03;;;7.47;;
34643;SDS011;26931;43.498;-1.506;2023-04-15T01:58:48;29.38;;;7.18;;
34643;SDS011;26931;43.498;-1.506;2023-04-15T02:01:14;34.38;;;7.63;;
34643;SDS011;26931;43.498;-1.506;2023-04-15T02:03:41;29.60;;;6.85;;
34643;SDS011;26931;43.498;-1.506;2023-04-15T02:06:07;39.80;;;8.35;;
34643;SDS011;26931;43.498;-1.506;2023-04-15T02:08:33;30.38;;;7.22;;
34643;SDS011;26931;43.498;-1.506;2023-04-15T02:10:59;34.35;;;7.50;;
34643;SDS011;26931;43.498;-1.506;2023-04-15T02:13:25;47.92;;;8.77;;
34643;SDS011;26931;43.498;-1.506;2023-04-15T02:15:51;28.35;;;7.15;;
34643;SDS011;26931;43.498;-1.506;2023-04-15T02:18:19;26.85;;;6.65;;
34643;SDS011;26931;43.498;-1.506;2023-04-15T02:20:46;35.58;;;6.93;;
34643;SDS011;26931;43.498;-1.506;2023-04-15T02:23:13;29.60;;;6.65;;
34643;SDS011;26931;43.498;-1.506;2023-04-15T02:25:39;37.80;;;7.45;;
34643;SDS011;26931;43.498;-1.506;2023-04-15T02:28:05;34.72;;;7.72;;
34643;SDS011;26931;43.498;-1.506;2023-04-15T02:30:31;29.55;;;7.07;;
34643;SDS011;26931;43.498;-1.506;2023-04-15T02:32:57;33.78;;;7.63;;
34643;SDS011;26931;43.498;-1.506;2023-04-15T02:35:24;36.50;;;7.72;;
34643;SDS011;26931;43.498;-1.506;2023-04-15T02:37:50;41.80;;;8.48;;
34643;SDS011;26931;43.498;-1.506;2023-04-15T02:40:17;38.58;;;7.95;;
34643;SDS011;26931;43.498;-1.506;2023-04-15T02:42:43;41.10;;;8.77;;
34643;SDS011;26931;43.498;-1.506;2023-04-15T02:45:09;41.47;;;8.18;;
34643;SDS011;26931;43.498;-1.506;2023-04-15T02:47:38;49.03;;;10.27;;
34643;SDS011;26931;43.498;-1.506;2023-04-15T02:50:09;41.45;;;10.25;;
34643;SDS011;26931;43.498;-1.506;2023-04-15T02:52:40;46.58;;;9.13;;
34643;SDS011;26931;43.498;-1.506;2023-04-15T02:55:07;46.28;;;10.75;;
34643;SDS011;26931;43.498;-1.506;2023-04-15T02:57:33;52.10;;;11.40;;
34643;SDS011;26931;43.498;-1.506;2023-04-15T03:00:02;62.22;;;12.27;;
34643;SDS011;26931;43.498;-1.506;2023-04-15T03:02:35;40.63;;;10.60;;
34643;SDS011;26931;43.498;-1.506;2023-04-15T03:05:02;38.20;;;10.15;;
34643;SDS011;26931;43.498;-1.506;2023-04-15T03:07:29;41.22;;;8.95;;
34643;SDS011;26931;43.498;-1.506;2023-04-15T03:09:55;47.30;;;9.93;;
34643;SDS011;26931;43.498;-1.506;2023-04-15T03:12:21;42.67;;;8.65;;
34643;SDS011;26931;43.498;-1.506;2023-04-15T03:14:47;38.13;;;8.82;;
34643;SDS011;26931;43.498;-1.506;2023-04-15T03:17:13;40.50;;;8.40;;
34643;SDS011;26931;43.498;-1.506;2023-04-15T03:19:39;47.08;;;9.13;;
34643;SDS011;26931;43.498;-1.506;2023-04-15T03:22:05;46.28;;;9.10;;
34643;SDS011;26931;43.498;-1.506;2023-04-15T03:24:31;44.25;;;8.30;;
34643;SDS011;26931;43.498;-1.506;2023-04-15T03:26:57;48.08;;;9.25;;
34643;SDS011;26931;43.498;-1.506;2023-04-15T03:29:23;36.40;;;8.85;;
34643;SDS011;26931;43.498;-1.506;2023-04-15T03:31:49;45.55;;;9.40;;
34643;SDS011;26931;43.498;-1.506;2023-04-15T03:34:16;48.53;;;10.23;;
34643;SDS011;26931;43.498;-1.506;2023-04-15T03:36:42;55.30;;;10.90;;
34643;SDS011;26931;43.498;-1.506;2023-04-15T03:39:08;36.78;;;9.38;;
34643;SDS011;26931;43.498;-1.506;2023-04-15T03:41:34;45.05;;;9.50;;
34643;SDS011;26931;43.498;-1.506;2023-04-15T03:44:00;39.80;;;8.10;;
34643;SDS011;26931;43.498;-1.506;2023-04-15T03:46:26;52.13;;;10.57;;
34643;SDS011;26931;43.498;-1.506;2023-04-15T03:48:52;41.05;;;8.80;;
34643;SDS011;26931;43.498;-1.506;2023-04-15T03:51:18;44.80;;;9.73;;
34643;SDS011;26931;43.498;-1.506;2023-04-15T03:53:43;42.28;;;10.07;;
34643;SDS011;26931;43.498;-1.506;2023-04-15T03:56:10;42.10;;;9.68;;
34643;SDS011;26931;43.498;-1.506;2023-04-15T03:58:36;40.90;;;9.32;;
34643;SDS011;26931;43.498;-1.506;2023-04-15T04:01:02;45.80;;;9.23;;
34643;SDS011;26931;43.498;-1.506;2023-04-15T04:03:27;34.15;;;8.35;;
34643;SDS011;26931;43.498;-1.506;2023-04-15T04:05:54;39.53;;;8.48;;
34643;SDS011;26931;43.498;-1.506;2023-04-15T04:08:20;28.52;;;7.30;;
34643;SDS011;26931;43.498;-1.506;2023-04-15T04:10:46;35.95;;;7.78;;
34643;SDS011;26931;43.498;-1.506;2023-04-15T04:13:12;41.45;;;9.07;;
34643;SDS011;26931;43.498;-1.506;2023-04-15T04:15:38;34.22;;;8.68;;
34643;SDS011;26931;43.498;-1.506;2023-04-15T04:18:04;42.95;;;8.45;;
34643;SDS011;26931;43.498;-1.506;2023-04-15T04:20:30;35.15;;;8.18;;
34643;SDS011;26931;43.498;-1.506;2023-04-15T04:22:57;48.97;;;8.88;;
34643;SDS011;26931;43.498;-1.506;2023-04-15T04:25:23;36.97;;;7.65;;
34643;SDS011;26931;43.498;-1.506;2023-04-15T04:27:49;28.83;;;6.57;;
34643;SDS011;26931;43.498;-1.506;2023-04-15T04:30:16;35.92;;;7.43;;
34643;SDS011;26931;43.498;-1.506;2023-04-15T04:32:42;28.88;;;6.05;;
34643;SDS011;26931;43.498;-1.506;2023-04-15T04:35:08;18.85;;;4.78;;
34643;SDS011;26931;43.498;-1.506;2023-04-15T04:37:34;17.50;;;4.10;;
34643;SDS011;26931;43.498;-1.506;2023-04-15T04:40:00;15.73;;;3.78;;
34643;SDS011;26931;43.498;-1.506;2023-04-15T04:42:27;17.88;;;5.40;;
34643;SDS011;26931;43.498;-1.506;2023-04-15T04:44:53;15.57;;;4.22;;
34643;SDS011;26931;43.498;-1.506;2023-04-15T04:47:19;22.27;;;4.97;;
34643;SDS011;26931;43.498;-1.506;2023-04-15T04:49:45;29.48;;;5.43;;
34643;SDS011;26931;43.498;-1.506;2023-04-15T04:52:11;27.65;;;6.53;;
34643;SDS011;26931;43.498;-1.506;2023-04-15T04:54:37;23.70;;;5.63;;
34643;SDS011;26931;43.498;-1.506;2023-04-15T04:57:03;34.95;;;6.78;;
34643;SDS011;26931;43.498;-1.506;2023-04-15T04:59:29;37.70;;;7.53;;
34643;SDS011;26931;43.498;-1.506;2023-04-15T05:01:55;29.48;;;6.70;;
34643;SDS011;26931;43.498;-1.506;2023-04-15T05:04:21;33.65;;;7.30;;
34643;SDS011;26931;43.498;-1.506;2023-04-15T05:06:47;33.30;;;7.38;;
34643;SDS011;26931;43.498;-1.506;2023-04-15T05:09:13;28.40;;;6.85;;
34643;SDS011;26931;43.498;-1.506;2023-04-15T05:11:39;20.63;;;4.35;;
34643;SDS011;26931;43.498;-1.506;2023-04-15T05:14:05;21.05;;;4.05;;
34643;SDS011;26931;43.498;-1.506;2023-04-15T05:16:31;24.88;;;4.88;;
34643;SDS011;26931;43.498;-1.506;2023-04-15T05:18:57;20.70;;;4.57;;
34643;SDS011;26931;43.498;-1.506;2023-04-15T05:21:23;24.30;;;5.28;;
34643;SDS011;26931;43.498;-1.506;2023-04-15T05:23:50;29.02;;;5.57;;
34643;SDS011;26931;43.498;-1.506;2023-04-15T05:26:16;23.48;;;5.85;;
34643;SDS011;26931;43.498;-1.506;2023-04-15T05:28:41;22.80;;;4.95;;
34643;SDS011;26931;43.498;-1.506;2023-04-15T05:31:07;33.22;;;5.82;;
34643;SDS011;26931;43.498;-1.506;2023-04-15T05:33:34;25.30;;;5.70;;
34643;SDS011;26931;43.498;-1.506;2023-04-15T05:36:00;22.05;;;5.03;;
34643;SDS011;26931;43.498;-1.506;2023-04-15T05:38:26;21.98;;;4.55;;
34643;SDS011;26931;43.498;-1.506;2023-04-15T05:40:52;30.67;;;5.57;;
34643;SDS011;26931;43.498;-1.506;2023-04-15T05:43:18;23.63;;;6.30;;
34643;SDS011;26931;43.498;-1.506;2023-04-15T05:45:43;32.50;;;5.90;;
34643;SDS011;26931;43.498;-1.506;2023-04-15T05:48:09;25.60;;;5.13;;
34643;SDS011;26931;43.498;-1.506;2023-04-15T05:50:35;33.15;;;6.15;;
34643;SDS011;26931;43.498;-1.506;2023-04-15T05:53:01;23.80;;;6.28;;
34643;SDS011;26931;43.498;-1.506;2023-04-15T05:55:27;28.13;;;7.93;;
34643;SDS011;26931;43.498;-1.506;2023-04-15T05:57:53;28.40;;;8.18;;
34643;SDS011;26931;43.498;-1.506;2023-04-15T06:00:19;21.80;;;5.82;;
34643;SDS011;26931;43.498;-1.506;2023-04-15T06:02:45;21.52;;;5.43;;
34643;SDS011;26931;43.498;-1.506;2023-04-15T06:05:11;28.23;;;5.60;;
34643;SDS011;26931;43.498;-1.506;2023-04-15T06:07:38;18.30;;;4.68;;
34643;SDS011;26931;43.498;-1.506;2023-04-15T06:10:04;21.23;;;5.65;;
34643;SDS011;26931;43.498;-1.506;2023-04-15T06:12:31;24.00;;;5.32;;
34643;SDS011;26931;43.498;-1.506;2023-04-15T06:14:57;26.15;;;5.78;;
34643;SDS011;26931;43.498;-1.506;2023-04-15T06:17:23;24.13;;;4.72;;
34643;SDS011;26931;43.498;-1.506;2023-04-15T06:19:49;23.42;;;5.05;;
34643;SDS011;26931;43.498;-1.506;2023-04-15T06:22:20;22.42;;;4.97;;
34643;SDS011;26931;43.498;-1.506;2023-04-15T06:24:47;28.33;;;5.03;;
34643;SDS011;26931;43.498;-1.506;2023-04-15T06:27:17;22.90;;;4.57;;
34643;SDS011;26931;43.498;-1.506;2023-04-15T06:29:43;19.27;;;5.10;;
34643;SDS011;26931;43.498;-1.506;2023-04-15T06:32:09;24.33;;;4.78;;
34643;SDS011;26931;43.498;-1.506;2023-04-15T06:34:36;18.88;;;5.15;;
34643;SDS011;26931;43.498;-1.506;2023-04-15T06:37:02;25.77;;;4.55;;
34643;SDS011;26931;43.498;-1.506;2023-04-15T06:39:28;23.55;;;5.03;;
34643;SDS011;26931;43.498;-1.506;2023-04-15T06:41:54;25.85;;;5.97;;
34643;SDS011;26931;43.498;-1.506;2023-04-15T06:44:20;21.52;;;5.05;;
34643;SDS011;26931;43.498;-1.506;2023-04-15T06:46:46;21.85;;;5.25;;
34643;SDS011;26931;43.498;-1.506;2023-04-15T06:49:13;16.00;;;4.47;;
34643;SDS011;26931;43.498;-1.506;2023-04-15T06:51:39;21.67;;;5.15;;
34643;SDS011;26931;43.498;-1.506;2023-04-15T06:54:06;25.90;;;5.47;;
34643;SDS011;26931;43.498;-1.506;2023-04-15T06:56:32;23.80;;;5.32;;
34643;SDS011;26931;43.498;-1.506;2023-04-15T06:58:59;23.23;;;5.78;;
34643;SDS011;26931;43.498;-1.506;2023-04-15T07:01:25;20.98;;;4.65;;
34643;SDS011;26931;43.498;-1.506;2023-04-15T07:03:51;17.92;;;4.30;;
34643;SDS011;26931;43.498;-1.506;2023-04-15T07:06:17;21.38;;;4.30;;
34643;SDS011;26931;43.498;-1.506;2023-04-15T07:08:43;19.85;;;5.38;;
34643;SDS011;26931;43.498;-1.506;2023-04-15T07:11:09;19.63;;;4.93;;
34643;SDS011;26931;43.498;-1.506;2023-04-15T07:13:36;24.10;;;5.50;;
34643;SDS011;26931;43.498;-1.506;2023-04-15T07:16:02;22.98;;;5.15;;
34643;SDS011;26931;43.498;-1.506;2023-04-15T07:18:28;19.83;;;4.97;;
34643;SDS011;26931;43.498;-1.506;2023-04-15T07:20:54;26.05;;;5.93;;
34643;SDS011;26931;43.498;-1.506;2023-04-15T07:23:20;22.88;;;5.72;;
34643;SDS011;26931;43.498;-1.506;2023-04-15T07:25:47;28.55;;;5.47;;
34643;SDS011;26931;43.498;-1.506;2023-04-15T07:28:13;16.02;;;4.88;;
34643;SDS011;26931;43.498;-1.506;2023-04-15T07:30:39;22.98;;;5.90;;
34643;SDS011;26931;43.498;-1.506;2023-04-15T07:33:05;12.93;;;4.25;;
34643;SDS011;26931;43.498;-1.506;2023-04-15T07:35:31;21.55;;;5.20;;
34643;SDS011;26931;43.498;-1.506;2023-04-15T07:37:57;14.05;;;3.88;;
34643;SDS011;26931;43.498;-1.506;2023-04-15T07:40:23;13.00;;;3.47;;
34643;SDS011;26931;43.498;-1.506;2023-04-15T07:42:49;11.50;;;3.53;;
34643;SDS011;26931;43.498;-1.506;2023-04-15T07:45:15;17.63;;;4.15;;
34643;SDS011;26931;43.498;-1.506;2023-04-15T07:47:41;18.25;;;3.88;;
34643;SDS011;26931;43.498;-1.506;2023-04-15T07:50:08;16.65;;;4.78;;
34643;SDS011;26931;43.498;-1.506;2023-04-15T07:52:37;11.07;;;4.35;;
34643;SDS011;26931;43.498;-1.506;2023-04-15T07:55:06;22.33;;;5.65;;
34643;SDS011;26931;43.498;-1.506;2023-04-15T07:57:34;13.35;;;3.88;;
34643;SDS011;26931;43.498;-1.506;2023-04-15T08:00:01;16.13;;;5.38;;
34643;SDS011;26931;43.498;-1.506;2023-04-15T08:02:31;14.25;;;4.03;;
34643;SDS011;26931;43.498;-1.506;2023-04-15T08:04:58;16.45;;;3.53;;
34643;SDS011;26931;43.498;-1.506;2023-04-15T08:07:24;15.65;;;3.78;;
34643;SDS011;26931;43.498;-1.506;2023-04-15T08:09:50;14.68;;;4.40;;
34643;SDS011;26931;43.498;-1.506;2023-04-15T08:12:16;14.65;;;4.15;;
34643;SDS011;26931;43.498;-1.506;2023-04-15T08:14:42;13.68;;;3.85;;
34643;SDS011;26931;43.498;-1.506;2023-04-15T08:17:07;11.60;;;4.10;;
34643;SDS011;26931;43.498;-1.506;2023-04-15T08:19:33;13.55;;;3.80;;
34643;SDS011;26931;43.498;-1.506;2023-04-15T08:21:59;13.05;;;4.45;;
34643;SDS011;26931;43.498;-1.506;2023-04-15T08:24:26;16.38;;;3.97;;
34643;SDS011;26931;43.498;-1.506;2023-04-15T08:26:52;14.90;;;4.53;;
34643;SDS011;26931;43.498;-1.506;2023-04-15T08:29:17;19.92;;;5.03;;
34643;SDS011;26931;43.498;-1.506;2023-04-15T08:31:43;21.23;;;5.13;;
34643;SDS011;26931;43.498;-1.506;2023-04-15T08:34:10;18.23;;;4.20;;
34643;SDS011;26931;43.498;-1.506;2023-04-15T08:36:36;18.13;;;4.03;;
34643;SDS011;26931;43.498;-1.506;2023-04-15T08:39:03;16.05;;;4.00;;
34643;SDS011;26931;43.498;-1.506;2023-04-15T08:41:39;15.82;;;3.92;;
34643;SDS011;26931;43.498;-1.506;2023-04-15T08:44:16;14.02;;;4.35;;
34643;SDS011;26931;43.498;-1.506;2023-04-15T08:46:42;16.17;;;4.45;;
34643;SDS011;26931;43.498;-1.506;2023-04-15T08:49:11;15.15;;;3.83;;
34643;SDS011;26931;43.498;-1.506;2023-04-15T08:51:39;23.23;;;4.55;;
34643;SDS011;26931;43.498;-1.506;2023-04-15T08:54:06;15.52;;;3.80;;
34643;SDS011;26931;43.498;-1.506;2023-04-15T08:56:33;15.25;;;3.92;;
34643;SDS011;26931;43.498;-1.506;2023-04-15T08:58:59;17.85;;;3.65;;
34643;SDS011;26931;43.498;-1.506;2023-04-15T09:01:26;18.15;;;3.40;;
34643;SDS011;26931;43.498;-1.506;2023-04-15T09:03:52;13.10;;;3.47;;
34643;SDS011;26931;43.498;-1.506;2023-04-15T09:06:19;8.02;;;3.45;;
34643;SDS011;26931;43.498;-1.506;2023-04-15T09:08:45;16.75;;;3.60;;
34643;SDS011;26931;43.498;-1.506;2023-04-15T09:11:12;12.45;;;3.58;;
34643;SDS011;26931;43.498;-1.506;2023-04-15T09:13:38;15.23;;;4.35;;
34643;SDS011;26931;43.498;-1.506;2023-04-15T09:16:05;19.42;;;3.97;;
34643;SDS011;26931;43.498;-1.506;2023-04-15T09:18:32;15.38;;;3.92;;
34643;SDS011;26931;43.498;-1.506;2023-04-15T09:21:09;12.35;;;3.45;;
34643;SDS011;26931;43.498;-1.506;2023-04-15T09:23:38;15.88;;;4.45;;
34643;SDS011;26931;43.498;-1.506;2023-04-15T09:26:05;16.50;;;4.05;;
34643;SDS011;26931;43.498;-1.506;2023-04-15T09:28:32;14.10;;;4.35;;
34643;SDS011;26931;43.498;-1.506;2023-04-15T09:31:00;20.88;;;4.75;;
34643;SDS011;26931;43.498;-1.506;2023-04-15T09:33:27;16.55;;;4.70;;
34643;SDS011;26931;43.498;-1.506;2023-04-15T09:36:05;19.00;;;5.35;;
34643;SDS011;26931;43.498;-1.506;2023-04-15T09:38:31;27.17;;;5.70;;
34643;SDS011;26931;43.498;-1.506;2023-04-15T09:40:57;14.85;;;4.53;;
34643;SDS011;26931;43.498;-1.506;2023-04-15T09:43:36;18.88;;;5.10;;
34643;SDS011;26931;43.498;-1.506;2023-04-15T09:46:04;15.75;;;4.80;;
34643;SDS011;26931;43.498;-1.506;2023-04-15T09:48:30;14.48;;;3.55;;
34643;SDS011;26931;43.498;-1.506;2023-04-15T09:50:57;15.52;;;4.78;;
34643;SDS011;26931;43.498;-1.506;2023-04-15T09:53:25;11.63;;;3.80;;
34643;SDS011;26931;43.498;-1.506;2023-04-15T09:55:52;14.10;;;4.38;;
34643;SDS011;26931;43.498;-1.506;2023-04-15T09:58:29;16.40;;;4.38;;
34643;SDS011;26931;43.498;-1.506;2023-04-15T10:00:58;16.10;;;3.92;;
34643;SDS011;26931;43.498;-1.506;2023-04-15T10:03:26;17.52;;;3.95;;
34643;SDS011;26931;43.498;-1.506;2023-04-15T10:05:54;16.90;;;3.92;;
34643;SDS011;26931;43.498;-1.506;2023-04-15T10:08:27;12.65;;;3.47;;
34643;SDS011;26931;43.498;-1.506;2023-04-15T10:10:55;9.43;;;3.03;;
34643;SDS011;26931;43.498;-1.506;2023-04-15T10:13:22;20.13;;;3.67;;
34643;SDS011;26931;43.498;-1.506;2023-04-15T10:15:56;9.25;;;2.50;;
34643;SDS011;26931;43.498;-1.506;2023-04-15T10:18:31;10.45;;;3.42;;
34643;SDS011;26931;43.498;-1.506;2023-04-15T10:21:00;11.52;;;2.80;;
34643;SDS011;26931;43.498;-1.506;2023-04-15T10:23:26;11.18;;;3.50;;
34643;SDS011;26931;43.498;-1.506;2023-04-15T10:25:52;10.27;;;3.22;;
34643;SDS011;26931;43.498;-1.506;2023-04-15T10:28:19;15.98;;;3.53;;
34643;SDS011;26931;43.498;-1.506;2023-04-15T10:30:48;13.30;;;3.67;;
34643;SDS011;26931;43.498;-1.506;2023-04-15T10:33:14;14.05;;;3.20;;
34643;SDS011;26931;43.498;-1.506;2023-04-15T10:35:47;19.05;;;3.92;;
34643;SDS011;26931;43.498;-1.506;2023-04-15T10:41:17;13.77;;;3.40;;
34643;SDS011;26931;43.498;-1.506;2023-04-15T10:43:54;14.70;;;3.63;;
34643;SDS011;26931;43.498;-1.506;2023-04-15T10:46:40;12.48;;;3.38;;
34643;SDS011;26931;43.498;-1.506;2023-04-15T10:49:13;11.75;;;2.92;;
34643;SDS011;26931;43.498;-1.506;2023-04-15T10:51:52;7.22;;;2.80;;
34643;SDS011;26931;43.498;-1.506;2023-04-15T10:59:31;10.20;;;4.05;;
34643;SDS011;26931;43.498;-1.506;2023-04-15T11:02:06;11.88;;;3.75;;
34643;SDS011;26931;43.498;-1.506;2023-04-15T11:07:52;13.13;;;2.92;;
34643;SDS011;26931;43.498;-1.506;2023-04-15T11:12:45;14.98;;;3.40;;
34643;SDS011;26931;43.498;-1.506;2023-04-15T11:15:34;9.18;;;2.70;;
34643;SDS011;26931;43.498;-1.506;2023-04-15T11:18:17;11.63;;;3.22;;
34643;SDS011;26931;43.498;-1.506;2023-04-15T11:21:04;11.48;;;3.38;;
34643;SDS011;26931;43.498;-1.506;2023-04-15T11:23:36;10.15;;;3.03;;
34643;SDS011;26931;43.498;-1.506;2023-04-15T11:26:04;10.32;;;3.28;;
34643;SDS011;26931;43.498;-1.506;2023-04-15T11:28:33;10.70;;;3.13;;
34643;SDS011;26931;43.498;-1.506;2023-04-15T11:31:07;13.90;;;3.53;;
34643;SDS011;26931;43.498;-1.506;2023-04-15T11:33:54;12.52;;;4.00;;
34643;SDS011;26931;43.498;-1.506;2023-04-15T11:36:23;10.93;;;2.97;;
34643;SDS011;26931;43.498;-1.506;2023-04-15T11:38:51;11.38;;;3.10;;
34643;SDS011;26931;43.498;-1.506;2023-04-15T11:41:20;10.48;;;3.17;;
34643;SDS011;26931;43.498;-1.506;2023-04-15T11:43:46;16.95;;;3.85;;
34643;SDS011;26931;43.498;-1.506;2023-04-15T11:46:13;13.10;;;3.33;;
34643;SDS011;26931;43.498;-1.506;2023-04-15T11:48:41;10.32;;;2.72;;
34643;SDS011;26931;43.498;-1.506;2023-04-15T11:51:09;10.70;;;2.80;;
34643;SDS011;26931;43.498;-1.506;2023-04-15T11:53:44;14.02;;;3.53;;
34643;SDS011;26931;43.498;-1.506;2023-04-15T11:56:20;11.18;;;3.45;;
34643;SDS011;26931;43.498;-1.506;2023-04-15T11:58:48;13.32;;;3.35;;
34643;SDS011;26931;43.498;-1.506;2023-04-15T12:01:17;13.90;;;3.75;;
34643;SDS011;26931;43.498;-1.506;2023-04-15T12:03:47;10.48;;;3.38;;
34643;SDS011;26931;43.498;-1.506;2023-04-15T12:06:17;14.73;;;3.70;;
34643;SDS011;26931;43.498;-1.506;2023-04-15T12:13:52;12.45;;;3.55;;
34643;SDS011;26931;43.498;-1.506;2023-04-15T12:16:21;15.88;;;3.45;;
34643;SDS011;26931;43.498;-1.506;2023-04-15T12:18:51;17.85;;;3.63;;
34643;SDS011;26931;43.498;-1.506;2023-04-15T12:21:23;13.23;;;3.00;;
34643;SDS011;26931;43.498;-1.506;2023-04-15T12:23:51;12.10;;;3.65;;
34643;SDS011;26931;43.498;-1.506;2023-04-15T12:26:41;22.23;;;3.97;;
34643;SDS011;26931;43.498;-1.506;2023-04-15T12:29:15;15.05;;;3.58;;
34643;SDS011;26931;43.498;-1.506;2023-04-15T12:31:49;13.55;;;3.42;;
34643;SDS011;26931;43.498;-1.506;2023-04-15T12:34:16;13.02;;;3.58;;
34643;SDS011;26931;43.498;-1.506;2023-04-15T12:36:44;11.10;;;3.40;;
34643;SDS011;26931;43.498;-1.506;2023-04-15T12:39:10;11.73;;;2.92;;
34643;SDS011;26931;43.498;-1.506;2023-04-15T12:41:36;16.13;;;3.47;;
34643;SDS011;26931;43.498;-1.506;2023-04-15T12:44:01;9.98;;;3.33;;
34643;SDS011;26931;43.498;-1.506;2023-04-15T12:46:27;13.68;;;3.55;;
34643;SDS011;26931;43.498;-1.506;2023-04-15T12:48:54;13.57;;;3.38;;
34643;SDS011;26931;43.498;-1.506;2023-04-15T12:51:21;24.77;;;3.75;;
34643;SDS011;26931;43.498;-1.506;2023-04-15T12:53:47;14.75;;;3.40;;
34643;SDS011;26931;43.498;-1.506;2023-04-15T12:56:14;16.95;;;3.83;;
34643;SDS011;26931;43.498;-1.506;2023-04-15T12:58:43;10.02;;;3.35;;
34643;SDS011;26931;43.498;-1.506;2023-04-15T13:01:09;12.90;;;3.38;;
34643;SDS011;26931;43.498;-1.506;2023-04-15T13:03:35;14.70;;;4.05;;
34643;SDS011;26931;43.498;-1.506;2023-04-15T13:06:01;11.50;;;4.15;;
34643;SDS011;26931;43.498;-1.506;2023-04-15T13:08:28;11.63;;;3.63;;
34643;SDS011;26931;43.498;-1.506;2023-04-15T13:10:55;8.60;;;2.78;;
34643;SDS011;26931;43.498;-1.506;2023-04-15T13:13:22;9.43;;;2.95;;
34643;SDS011;26931;43.498;-1.506;2023-04-15T13:15:48;7.97;;;2.85;;
34643;SDS011;26931;43.498;-1.506;2023-04-15T13:18:15;13.82;;;3.30;;
34643;SDS011;26931;43.498;-1.506;2023-04-15T13:20:41;12.45;;;3.25;;
34643;SDS011;26931;43.498;-1.506;2023-04-15T13:23:07;10.55;;;3.10;;
34643;SDS011;26931;43.498;-1.506;2023-04-15T13:25:36;11.73;;;3.53;;
34643;SDS011;26931;43.498;-1.506;2023-04-15T13:28:02;8.55;;;3.67;;
34643;SDS011;26931;43.498;-1.506;2023-04-15T13:30:30;12.60;;;3.33;;
34643;SDS011;26931;43.498;-1.506;2023-04-15T13:32:56;8.80;;;2.83;;
34643;SDS011;26931;43.498;-1.506;2023-04-15T13:35:22;9.77;;;3.20;;
34643;SDS011;26931;43.498;-1.506;2023-04-15T13:37:48;17.50;;;3.72;;
34643;SDS011;26931;43.498;-1.506;2023-04-15T13:40:14;8.55;;;2.95;;
34643;SDS011;26931;43.498;-1.506;2023-04-15T13:42:40;11.82;;;3.40;;
34643;SDS011;26931;43.498;-1.506;2023-04-15T13:45:06;11.82;;;3.08;;
34643;SDS011;26931;43.498;-1.506;2023-04-15T13:47:33;13.80;;;3.58;;
34643;SDS011;26931;43.498;-1.506;2023-04-15T13:50:01;12.38;;;3.28;;
34643;SDS011;26931;43.498;-1.506;2023-04-15T13:52:27;15.93;;;3.22;;
34643;SDS011;26931;43.498;-1.506;2023-04-15T13:54:53;13.13;;;3.17;;
34643;SDS011;26931;43.498;-1.506;2023-04-15T13:57:19;11.68;;;2.75;;
34643;SDS011;26931;43.498;-1.506;2023-04-15T13:59:45;17.92;;;3.20;;
34643;SDS011;26931;43.498;-1.506;2023-04-15T14:02:10;14.43;;;3.42;;
34643;SDS011;26931;43.498;-1.506;2023-04-15T14:04:36;15.77;;;3.13;;
34643;SDS011;26931;43.498;-1.506;2023-04-15T14:07:02;12.20;;;2.90;;
34643;SDS011;26931;43.498;-1.506;2023-04-15T14:09:28;10.82;;;2.85;;
34643;SDS011;26931;43.498;-1.506;2023-04-15T14:11:54;7.90;;;2.65;;
34643;SDS011;26931;43.498;-1.506;2023-04-15T14:14:20;8.13;;;2.95;;
34643;SDS011;26931;43.498;-1.506;2023-04-15T14:16:46;13.57;;;3.47;;
34643;SDS011;26931;43.498;-1.506;2023-04-15T14:19:13;14.23;;;3.28;;
34643;SDS011;26931;43.498;-1.506;2023-04-15T14:21:39;13.75;;;3.17;;
34643;SDS011;26931;43.498;-1.506;2023-04-15T14:24:05;11.48;;;3.20;;
34643;SDS011;26931;43.498;-1.506;2023-04-15T14:26:31;13.52;;;3.03;;
34643;SDS011;26931;43.498;-1.506;2023-04-15T14:28:57;18.48;;;3.60;;
34643;SDS011;26931;43.498;-1.506;2023-04-15T14:31:23;13.05;;;3.58;;
34643;SDS011;26931;43.498;-1.506;2023-04-15T14:33:48;10.32;;;3.10;;
34643;SDS011;26931;43.498;-1.506;2023-04-15T14:36:15;12.63;;;3.13;;
34643;SDS011;26931;43.498;-1.506;2023-04-15T14:38:41;13.98;;;2.90;;
34643;SDS011;26931;43.498;-1.506;2023-04-15T14:41:07;14.70;;;4.03;;